Forside
METAR-TAF:

METAR-TAF

Lufthavne :

Nagoya, Japan

Breddekreds: 34-51-30N, længdekreds: 136-48-19E, højde: 5 m

Aktuelle vejr

Denne rapport blev lavet for 56 minutter siden, kl. 08:00 UTC
Vind 32 kt fra nordvest
Temperatur 8°C
Fugtighed 49%
Tryk 1020 hPa
Sigt 10 km eller mere
Nogle få skyer i en højde af 3000 ft

METAR: RJGG 270800Z 31032KT 9999 FEW030 08/M02 Q1020 TEMPO 32034G44KT

Tid: 17:56 (08:56 UTC)

Vejrudsigter

Denne rapport blev lavet for 3 timer og 23 minutter siden, kl. 05:33 UTC
Foreløbig gælder fra 27 på 06 UTC til 28 på 12 UTC
Vind 24 kt fra nordvest
Sigt 10 km eller mere
Nogle få skyer i en højde af 3000 ft
Spredte skyer i en højde af 4500 ft
Midlertidig
fra 27 på 06 UTC til 27 på 10 UTC
Vind 34 kt fra nordvest med vindstød på up til 44 kt
ændring
fra 27 på 21 UTC til 28 på 00 UTC
Vind 10 kt fra nordnordvest

TAF: RJGG 270533Z 2706/2812 32024KT 9999 FEW030 SCT045 TEMPO 2706/2710 32034G44KT BECMG 2721/2800 34010KT

Vejrobservationer og prognoser fra mere end 4000 lufthavne (METAR og TAF).

De gule og røde prikker repræsenterer de meteorologiske stationer.

Flyt musen over at se navnet på stationen.

Så klik over at se vejr observationer og prognoser.

At skifte det kort: Klik på de grønne knapper med et sort kors for at zoome ind; på den grønne knap med en bindestreg for at zoome ud; eller på de grønne pile for tilstødende kort.


METAR-TAF: